createdAt,value
2023-05-09T00:02:06.231Z,2.85
2023-05-09T00:04:35.660Z,2.63
2023-05-09T00:07:07.054Z,3.05
2023-05-09T00:09:35.856Z,3.30
2023-05-09T00:14:54.399Z,2.63
2023-05-09T00:17:25.037Z,2.65
2023-05-09T00:19:52.941Z,2.78
2023-05-09T00:22:21.402Z,2.95
2023-05-09T00:24:51.081Z,3.08
2023-05-09T00:27:17.508Z,3.00
2023-05-09T00:29:43.925Z,3.40
2023-05-09T00:32:10.902Z,2.95
2023-05-09T00:34:40.465Z,3.17
2023-05-09T00:37:07.081Z,2.80
2023-05-09T00:39:33.661Z,2.85
2023-05-09T00:42:00.149Z,3.15
2023-05-09T00:44:26.582Z,2.88
2023-05-09T00:46:53.064Z,3.08
2023-05-09T00:49:19.560Z,2.50
2023-05-09T00:51:48.182Z,2.85
2023-05-09T00:54:14.594Z,2.75
2023-05-09T00:56:41.105Z,2.30
2023-05-09T00:59:07.580Z,2.92
2023-05-09T01:01:34.062Z,2.90
2023-05-09T01:04:00.675Z,2.30
2023-05-09T01:06:27.063Z,2.22
2023-05-09T01:09:03.387Z,2.88
2023-05-09T01:11:33.334Z,2.95
2023-05-09T01:14:06.804Z,2.50
2023-05-09T01:16:37.609Z,2.42
2023-05-09T01:19:04.047Z,2.70
2023-05-09T01:21:32.460Z,2.50
2023-05-09T01:24:17.579Z,2.80
2023-05-09T01:26:46.645Z,2.30
2023-05-09T01:29:16.100Z,2.40
2023-05-09T01:31:44.219Z,2.40
2023-05-09T01:34:11.441Z,2.60
2023-05-09T01:36:38.588Z,2.60
2023-05-09T01:39:11.383Z,2.58
2023-05-09T01:41:38.192Z,2.58
2023-05-09T01:44:06.584Z,2.53
2023-05-09T01:46:33.823Z,2.15
2023-05-09T01:49:01.303Z,2.70
2023-05-09T01:51:28.687Z,2.83
2023-05-09T01:53:56.764Z,2.75
2023-05-09T01:56:24.483Z,2.35
2023-05-09T01:58:51.782Z,2.50
2023-05-09T02:01:18.852Z,3.00
2023-05-09T02:03:47.044Z,2.78
2023-05-09T02:06:15.743Z,2.22
2023-05-09T02:08:42.502Z,3.42
2023-05-09T02:11:09.032Z,2.53
2023-05-09T02:13:35.456Z,2.67
2023-05-09T02:16:02.086Z,2.88
2023-05-09T02:18:29.317Z,2.50
2023-05-09T02:20:55.807Z,2.58
2023-05-09T02:23:22.325Z,2.90
2023-05-09T02:25:48.806Z,2.20
2023-05-09T02:28:15.604Z,2.40
2023-05-09T02:30:43.392Z,2.58
2023-05-09T02:33:11.802Z,3.03
2023-05-09T02:35:39.809Z,2.78
2023-05-09T02:38:06.651Z,2.60
2023-05-09T02:40:33.747Z,3.00
2023-05-09T02:43:00.366Z,2.60
2023-05-09T02:45:26.784Z,2.97
2023-05-09T02:47:53.293Z,2.53
2023-05-09T02:50:19.771Z,2.47
2023-05-09T02:52:46.305Z,2.70
2023-05-09T02:55:12.937Z,2.22
2023-05-09T02:57:39.544Z,3.05
2023-05-09T03:00:12.268Z,2.25
2023-05-09T03:02:38.922Z,2.65
2023-05-09T03:05:05.856Z,2.42
2023-05-09T03:07:32.323Z,2.88
2023-05-09T03:09:58.738Z,2.85
2023-05-09T03:12:25.284Z,2.58
2023-05-09T03:14:51.748Z,2.80
2023-05-09T03:17:21.326Z,2.70
2023-05-09T03:19:48.495Z,2.80
2023-05-09T03:22:17.111Z,2.88
2023-05-09T03:24:43.736Z,2.47
2023-05-09T03:27:10.341Z,3.03
2023-05-09T03:29:37.061Z,2.78
2023-05-09T03:32:03.724Z,2.72
2023-05-09T03:34:30.230Z,2.90
2023-05-09T03:36:56.650Z,3.00
2023-05-09T03:39:23.032Z,3.08
2023-05-09T03:41:49.481Z,3.10
2023-05-09T03:44:15.973Z,3.15
2023-05-09T03:46:42.563Z,3.03
2023-05-09T03:49:09.030Z,3.13
2023-05-09T03:51:35.441Z,3.35
2023-05-09T03:54:01.955Z,3.05
2023-05-09T03:56:28.313Z,2.60
2023-05-09T03:58:55.008Z,3.20
2023-05-09T04:01:21.457Z,2.90
2023-05-09T04:03:49.363Z,2.90
2023-05-09T04:06:15.845Z,3.25
2023-05-09T04:08:42.502Z,2.92
2023-05-09T04:11:08.929Z,3.28
2023-05-09T04:13:35.394Z,2.85
2023-05-09T04:16:01.946Z,3.13
2023-05-09T04:18:28.465Z,2.53
2023-05-09T04:20:54.891Z,2.90
2023-05-09T04:23:21.295Z,3.65
2023-05-09T04:25:47.770Z,3.20
2023-05-09T04:28:14.164Z,3.45
2023-05-09T04:30:40.703Z,3.17
2023-05-09T04:33:07.197Z,2.92
2023-05-09T04:35:33.693Z,2.88
2023-05-09T04:38:00.185Z,3.13
2023-05-09T04:40:27.128Z,2.88
2023-05-09T04:42:53.666Z,3.40
2023-05-09T04:45:22.296Z,2.60
2023-05-09T04:47:48.725Z,4.03
2023-05-09T04:50:15.216Z,3.50
2023-05-09T04:52:41.637Z,3.15
2023-05-09T04:55:08.273Z,2.80
2023-05-09T04:57:34.672Z,2.80
2023-05-09T05:00:01.177Z,2.83
2023-05-09T05:02:27.685Z,3.13
2023-05-09T05:05:03.035Z,2.90
2023-05-09T05:07:37.056Z,3.38
2023-05-09T05:10:03.607Z,3.13
2023-05-09T05:12:30.006Z,2.80
2023-05-09T05:14:56.551Z,2.83
2023-05-09T05:17:24.759Z,2.92
2023-05-09T05:19:51.218Z,2.88
2023-05-09T05:22:17.637Z,2.83
2023-05-09T05:24:44.015Z,2.83
2023-05-09T05:27:10.489Z,2.67
2023-05-09T05:29:36.919Z,4.13
2023-05-09T05:32:03.466Z,3.03
2023-05-09T05:34:30.091Z,3.10
2023-05-09T05:36:58.664Z,2.85
2023-05-09T05:39:25.079Z,3.17
2023-05-09T05:41:52.081Z,3.20
2023-05-09T05:44:18.574Z,2.88
2023-05-09T05:46:44.995Z,3.33
2023-05-09T05:49:11.427Z,3.30
2023-05-09T05:51:38.474Z,3.72
2023-05-09T05:54:04.973Z,3.10
2023-05-09T05:56:31.757Z,3.20
2023-05-09T05:58:58.277Z,3.15
2023-05-09T06:01:24.778Z,3.13
2023-05-09T06:03:54.765Z,3.10
2023-05-09T06:06:21.956Z,3.50
2023-05-09T06:08:51.309Z,3.38
2023-05-09T06:11:18.090Z,3.00
2023-05-09T06:13:44.719Z,3.67
2023-05-09T06:16:19.556Z,3.05
2023-05-09T06:18:46.859Z,2.92
2023-05-09T06:21:13.290Z,2.75
2023-05-09T06:23:47.284Z,3.13
2023-05-09T06:26:23.959Z,2.80
2023-05-09T06:28:50.411Z,2.80
2023-05-09T06:31:16.931Z,2.97
2023-05-09T06:33:43.336Z,2.67
2023-05-09T06:36:09.865Z,2.90
2023-05-09T06:38:36.368Z,3.80
2023-05-09T06:41:02.884Z,3.28
2023-05-09T06:43:29.252Z,2.70
2023-05-09T06:45:55.771Z,3.10
2023-05-09T06:48:23.954Z,3.33
2023-05-09T06:50:50.469Z,2.90
2023-05-09T06:53:16.935Z,3.30
2023-05-09T06:55:43.348Z,3.90
2023-05-09T06:58:11.078Z,3.20
2023-05-09T07:00:37.794Z,3.10
2023-05-09T07:03:04.429Z,3.20
2023-05-09T07:05:31.001Z,2.92
2023-05-09T07:07:57.561Z,3.25
2023-05-09T07:10:23.998Z,3.38
2023-05-09T07:12:50.924Z,3.00
2023-05-09T07:15:28.816Z,3.00
2023-05-09T07:18:03.571Z,3.00
2023-05-09T07:20:29.969Z,3.30
2023-05-09T07:23:00.403Z,3.10
2023-05-09T07:25:26.866Z,3.92
2023-05-09T07:27:53.277Z,3.13
2023-05-09T07:30:19.653Z,3.10
2023-05-09T07:32:46.091Z,3.65
2023-05-09T07:35:12.809Z,2.90
2023-05-09T07:37:39.459Z,2.90
2023-05-09T07:40:06.279Z,3.55
2023-05-09T07:42:33.123Z,3.25
2023-05-09T07:45:00.378Z,3.55
2023-05-09T07:47:27.121Z,3.33
2023-05-09T07:49:53.578Z,2.90
2023-05-09T07:52:20.068Z,3.28
2023-05-09T07:54:46.559Z,2.67
2023-05-09T07:57:13.584Z,3.10
2023-05-09T07:59:40.052Z,3.38
2023-05-09T08:02:06.620Z,2.72
2023-05-09T08:04:37.692Z,2.65
2023-05-09T08:07:04.916Z,2.92
2023-05-09T08:09:31.414Z,2.70
2023-05-09T08:11:58.493Z,2.70
2023-05-09T08:14:24.977Z,2.92
2023-05-09T08:16:51.540Z,2.83
2023-05-09T08:19:18.117Z,2.60
2023-05-09T08:21:45.756Z,2.40
2023-05-09T08:24:12.240Z,2.47
2023-05-09T08:26:38.653Z,2.75
2023-05-09T08:29:05.074Z,2.88
2023-05-09T08:31:31.636Z,2.40
2023-05-09T08:33:58.055Z,2.45
2023-05-09T08:36:24.951Z,2.72
2023-05-09T08:38:51.433Z,2.78
2023-05-09T08:41:18.063Z,2.65
2023-05-09T08:43:44.886Z,2.35
2023-05-09T08:46:11.697Z,2.60
2023-05-09T08:48:38.845Z,3.10
2023-05-09T08:51:06.177Z,2.67
2023-05-09T08:53:33.250Z,2.35
2023-05-09T08:56:01.623Z,2.33
2023-05-09T08:58:28.339Z,2.03
2023-05-09T09:00:55.631Z,2.67
2023-05-09T09:03:23.362Z,2.53
2023-05-09T09:05:51.728Z,2.13
2023-05-09T09:08:18.631Z,2.00
2023-05-09T09:10:48.371Z,2.60
2023-05-09T09:13:15.338Z,2.22
2023-05-09T09:15:43.655Z,2.10
2023-05-09T09:18:12.358Z,2.30
2023-05-09T09:20:46.320Z,2.45
2023-05-09T09:23:15.000Z,2.30
2023-05-09T09:25:41.547Z,2.20
2023-05-09T09:28:08.034Z,2.47
2023-05-09T09:30:34.463Z,2.05
2023-05-09T09:33:01.016Z,2.88
2023-05-09T09:35:27.482Z,2.25
2023-05-09T09:37:58.499Z,2.00
2023-05-09T09:40:26.730Z,2.40
2023-05-09T09:42:53.131Z,2.38
2023-05-09T09:45:20.444Z,2.40
2023-05-09T09:47:47.681Z,2.50
2023-05-09T09:50:24.753Z,2.22
2023-05-09T09:52:56.018Z,1.90
2023-05-09T09:55:24.109Z,1.85
2023-05-09T09:57:50.917Z,1.70
2023-05-09T10:00:18.933Z,2.35
2023-05-09T10:02:49.600Z,1.98
2023-05-09T10:05:20.506Z,2.17
2023-05-09T10:07:50.338Z,1.85
2023-05-09T10:10:17.137Z,1.65
2023-05-09T10:12:44.547Z,2.17
2023-05-09T10:15:12.431Z,1.77
2023-05-09T10:17:39.043Z,1.73
2023-05-09T10:20:06.176Z,1.83
2023-05-09T10:22:33.938Z,1.90
2023-05-09T10:25:00.550Z,2.17
2023-05-09T10:27:27.628Z,1.90
2023-05-09T10:30:07.190Z,1.85
2023-05-09T10:32:41.846Z,1.73
2023-05-09T10:35:10.489Z,1.48
2023-05-09T10:37:37.056Z,1.42
2023-05-09T10:40:04.897Z,1.70
2023-05-09T10:42:31.850Z,2.08
2023-05-09T10:44:58.412Z,2.38
2023-05-09T10:47:29.003Z,2.15
2023-05-09T10:49:55.778Z,2.00
2023-05-09T10:52:22.754Z,1.65
2023-05-09T10:54:59.773Z,1.75
2023-05-09T10:57:26.803Z,1.80
2023-05-09T10:59:54.620Z,1.90
2023-05-09T11:02:21.231Z,1.98
2023-05-09T11:04:47.824Z,1.85
2023-05-09T11:07:25.650Z,1.77
2023-05-09T11:09:53.094Z,1.80
2023-05-09T11:12:21.307Z,1.80
2023-05-09T11:14:48.870Z,1.75
2023-05-09T11:17:21.105Z,1.75
2023-05-09T11:19:47.538Z,1.80
2023-05-09T11:22:24.701Z,2.03
2023-05-09T11:24:53.921Z,1.80
2023-05-09T11:27:21.371Z,1.52
2023-05-09T11:30:04.518Z,1.63
2023-05-09T11:32:31.954Z,1.60
2023-05-09T11:35:10.827Z,1.80
2023-05-09T11:37:54.693Z,1.50
2023-05-09T11:40:22.037Z,2.00
2023-05-09T11:42:49.974Z,1.80
2023-05-09T11:45:17.231Z,1.40
2023-05-09T11:47:45.214Z,1.48
2023-05-09T11:50:13.117Z,1.63
2023-05-09T11:52:40.111Z,1.50
2023-05-09T11:55:10.835Z,1.80
2023-05-09T11:57:40.064Z,1.40
2023-05-09T12:00:06.925Z,1.65
2023-05-09T12:02:34.918Z,1.60
2023-05-09T12:05:09.563Z,1.80
2023-05-09T12:07:36.784Z,1.90
2023-05-09T12:10:05.448Z,1.98
2023-05-09T12:12:33.562Z,1.75
2023-05-09T12:15:02.569Z,1.60
2023-05-09T12:17:29.069Z,1.80
2023-05-09T12:19:55.761Z,2.28
2023-05-09T12:22:22.184Z,1.95
2023-05-09T12:24:49.325Z,1.90
2023-05-09T12:27:15.886Z,1.88
2023-05-09T12:29:45.988Z,1.73
2023-05-09T12:32:13.996Z,1.80
2023-05-09T12:34:40.424Z,1.70
2023-05-09T12:37:14.056Z,2.35
2023-05-09T12:39:41.688Z,1.50
2023-05-09T12:42:13.952Z,1.50
2023-05-09T12:44:48.760Z,1.52
2023-05-09T12:47:15.205Z,1.98
2023-05-09T12:49:41.913Z,1.50
2023-05-09T12:52:16.595Z,1.50
2023-05-09T12:54:45.848Z,1.55
2023-05-09T12:57:20.698Z,1.70
2023-05-09T12:59:47.190Z,2.10
2023-05-09T13:02:13.655Z,1.60
2023-05-09T13:07:38.434Z,1.60
2023-05-09T13:10:12.368Z,1.80
2023-05-09T13:12:39.753Z,1.77
2023-05-09T13:15:06.854Z,2.10
2023-05-09T13:17:33.430Z,1.67
2023-05-09T13:19:59.846Z,1.77
2023-05-09T13:22:26.746Z,1.60
2023-05-09T13:24:53.147Z,1.80
2023-05-09T13:27:20.006Z,1.60
2023-05-09T13:29:49.505Z,1.65
2023-05-09T13:32:15.912Z,2.08
2023-05-09T13:34:42.422Z,1.20
2023-05-09T13:37:08.899Z,1.20
2023-05-09T13:39:35.341Z,1.40
2023-05-09T13:42:02.170Z,0.93
2023-05-09T13:44:29.051Z,1.60
2023-05-09T13:46:58.966Z,1.40
2023-05-09T13:49:25.355Z,1.13
2023-05-09T13:51:52.230Z,1.10
2023-05-09T13:54:19.775Z,1.33
2023-05-09T13:56:46.256Z,1.10
2023-05-09T13:59:12.823Z,1.13
2023-05-09T14:01:39.261Z,1.00
2023-05-09T14:04:05.877Z,1.13
2023-05-09T14:06:33.171Z,1.10
2023-05-09T14:08:59.936Z,1.05
2023-05-09T14:11:26.355Z,1.40
2023-05-09T14:13:53.038Z,1.10
2023-05-09T14:16:20.044Z,1.40
2023-05-09T14:18:46.490Z,1.30
2023-05-09T14:21:13.086Z,1.05
2023-05-09T14:23:39.478Z,1.30
2023-05-09T14:26:05.972Z,0.95
2023-05-09T14:28:36.198Z,1.00
2023-05-09T14:31:03.535Z,1.00
2023-05-09T14:33:30.046Z,1.10
2023-05-09T14:35:56.484Z,0.90
2023-05-09T14:38:22.890Z,1.00
2023-05-09T14:40:49.447Z,1.10
2023-05-09T14:43:16.266Z,1.50
2023-05-09T14:45:45.923Z,0.88
2023-05-09T14:48:14.430Z,1.20
2023-05-09T14:50:42.296Z,1.42
2023-05-09T14:53:09.248Z,1.30
2023-05-09T14:55:36.287Z,1.13
2023-05-09T14:58:03.067Z,1.10
2023-05-09T15:00:30.016Z,1.10
2023-05-09T15:02:56.802Z,1.15
2023-05-09T15:05:23.356Z,1.10
2023-05-09T15:07:49.751Z,1.00
2023-05-09T15:10:16.480Z,1.00
2023-05-09T15:12:43.462Z,1.17
2023-05-09T15:15:13.052Z,1.10
2023-05-09T15:17:39.508Z,1.20
2023-05-09T15:20:07.232Z,1.10
2023-05-09T15:22:33.972Z,1.20
2023-05-09T15:25:00.722Z,1.20
2023-05-09T15:27:27.137Z,0.93
2023-05-09T15:29:54.481Z,1.33
2023-05-09T15:32:21.186Z,1.10
2023-05-09T15:34:47.608Z,1.10
2023-05-09T15:37:13.999Z,0.98
2023-05-09T15:39:45.567Z,0.90
2023-05-09T15:42:15.531Z,1.05
2023-05-09T15:44:42.769Z,1.38
2023-05-09T15:47:09.806Z,0.98
2023-05-09T15:49:36.422Z,1.20
2023-05-09T15:52:03.767Z,1.23
2023-05-09T15:54:32.190Z,0.90
2023-05-09T15:56:59.358Z,1.13
2023-05-09T15:59:26.137Z,1.00
2023-05-09T16:01:52.624Z,0.85
2023-05-09T16:04:19.155Z,1.00
2023-05-09T16:06:45.948Z,1.00
2023-05-09T16:09:13.533Z,0.90
2023-05-09T16:11:41.773Z,0.90
2023-05-09T16:14:11.384Z,0.90
2023-05-09T16:16:38.219Z,0.77
2023-05-09T16:19:06.264Z,1.10
2023-05-09T16:21:33.060Z,0.88
2023-05-09T16:24:03.303Z,0.80
2023-05-09T16:26:29.834Z,0.98
2023-05-09T16:28:56.376Z,0.88
2023-05-09T16:31:26.359Z,0.80
2023-05-09T16:33:53.278Z,0.90
2023-05-09T16:36:19.930Z,0.98
2023-05-09T16:38:46.379Z,1.00
2023-05-09T16:41:12.960Z,1.52
2023-05-09T16:43:40.349Z,1.38
2023-05-09T16:46:07.150Z,1.13
2023-05-09T16:48:33.748Z,1.10
2023-05-09T16:51:00.270Z,1.00
2023-05-09T16:53:27.786Z,1.25
2023-05-09T16:55:54.750Z,1.35
2023-05-09T16:58:21.249Z,1.40
2023-05-09T17:00:47.839Z,1.75
2023-05-09T17:03:16.840Z,1.45
2023-05-09T17:05:43.244Z,1.70
2023-05-09T17:08:09.743Z,1.65
2023-05-09T17:10:37.790Z,1.70
2023-05-09T17:13:07.705Z,1.55
2023-05-09T17:15:34.550Z,1.60
2023-05-09T17:18:01.346Z,1.70
2023-05-09T17:20:31.009Z,1.77
2023-05-09T17:22:57.512Z,2.45
2023-05-09T17:25:23.956Z,1.70
2023-05-09T17:27:50.421Z,1.67
2023-05-09T17:30:18.797Z,1.85
2023-05-09T17:32:46.724Z,1.75
2023-05-09T17:35:13.832Z,1.60
2023-05-09T17:37:40.900Z,1.48
2023-05-09T17:40:07.903Z,1.80
2023-05-09T17:42:34.427Z,1.52
2023-05-09T17:45:00.894Z,1.55
2023-05-09T17:47:27.505Z,1.85
2023-05-09T17:49:54.239Z,2.10
2023-05-09T17:52:21.614Z,1.63
2023-05-09T17:54:51.637Z,1.80
2023-05-09T17:57:18.121Z,1.33
2023-05-09T17:59:45.701Z,1.83
2023-05-09T18:02:13.598Z,1.70
2023-05-09T18:04:40.460Z,1.88
2023-05-09T18:07:08.342Z,1.80
2023-05-09T18:09:34.750Z,2.03
2023-05-09T18:12:05.964Z,1.70
2023-05-09T18:14:32.387Z,1.40
2023-05-09T18:16:58.835Z,1.80
2023-05-09T18:19:25.390Z,1.65
2023-05-09T18:21:51.822Z,1.85
2023-05-09T18:24:20.504Z,1.52
2023-05-09T18:26:48.259Z,1.83
2023-05-09T18:29:17.606Z,2.22
2023-05-09T18:31:44.172Z,2.20
2023-05-09T18:34:10.824Z,2.10
2023-05-09T18:36:37.349Z,2.60
2023-05-09T18:39:03.783Z,1.95
2023-05-09T18:41:31.822Z,1.95
2023-05-09T18:43:58.486Z,1.48
2023-05-09T18:46:29.911Z,2.05
2023-05-09T18:48:56.491Z,1.63
2023-05-09T18:51:22.979Z,2.03
2023-05-09T18:53:49.480Z,1.50
2023-05-09T18:56:20.387Z,2.13
2023-05-09T19:01:15.233Z,1.85
2023-05-09T19:03:45.710Z,2.25
2023-05-09T19:06:15.701Z,1.92
2023-05-09T19:08:42.793Z,1.77
2023-05-09T19:11:09.880Z,1.73
2023-05-09T19:13:39.972Z,2.08
2023-05-09T19:16:07.045Z,2.42
2023-05-09T19:18:34.083Z,2.00
2023-05-09T19:21:00.799Z,1.92
2023-05-09T19:23:27.228Z,1.90
2023-05-09T19:25:56.648Z,1.80
2023-05-09T19:28:23.238Z,1.98
2023-05-09T19:30:52.707Z,1.95
2023-05-09T19:33:19.678Z,1.98
2023-05-09T19:35:46.252Z,1.70
2023-05-09T19:38:12.684Z,2.03
2023-05-09T19:40:39.377Z,1.92
2023-05-09T19:43:05.961Z,1.85
2023-05-09T19:45:32.379Z,2.03
2023-05-09T19:48:01.068Z,2.03
2023-05-09T19:50:27.603Z,1.90
2023-05-09T19:52:54.063Z,2.10
2023-05-09T19:55:20.653Z,1.98
2023-05-09T19:57:47.309Z,1.70
2023-05-09T20:00:14.296Z,1.90
2023-05-09T20:02:41.083Z,2.20
2023-05-09T20:05:07.746Z,2.08
2023-05-09T20:07:34.189Z,2.08
2023-05-09T20:10:00.742Z,2.10
2023-05-09T20:12:29.442Z,2.30
2023-05-09T20:14:56.814Z,2.08
2023-05-09T20:17:23.328Z,2.30
2023-05-09T20:19:49.817Z,2.08
2023-05-09T20:22:16.287Z,2.30
2023-05-09T20:24:42.735Z,2.03
2023-05-09T20:27:09.169Z,2.10
2023-05-09T20:29:35.762Z,2.13
2023-05-09T20:32:02.410Z,2.03
2023-05-09T20:34:28.915Z,2.15
2023-05-09T20:36:55.441Z,2.42
2023-05-09T20:39:22.036Z,2.03
2023-05-09T20:41:49.458Z,2.00
2023-05-09T20:44:16.293Z,2.25
2023-05-09T20:46:45.042Z,2.15
2023-05-09T20:49:11.517Z,2.15
2023-05-09T20:51:38.155Z,2.15
2023-05-09T20:54:04.705Z,2.17
2023-05-09T20:56:31.108Z,2.35
2023-05-09T20:59:01.019Z,1.90
2023-05-09T21:01:27.630Z,2.60
2023-05-09T21:03:57.529Z,2.15
2023-05-09T21:06:23.932Z,2.20
2023-05-09T21:08:50.386Z,2.10
2023-05-09T21:11:17.764Z,2.13
2023-05-09T21:13:44.288Z,2.03
2023-05-09T21:16:10.882Z,2.58
2023-05-09T21:18:37.327Z,2.20
2023-05-09T21:21:08.188Z,2.30
2023-05-09T21:23:35.045Z,2.50
2023-05-09T21:26:02.555Z,2.05
2023-05-09T21:28:29.160Z,2.15
2023-05-09T21:30:55.747Z,2.38
2023-05-09T21:33:22.205Z,2.58
2023-05-09T21:35:48.590Z,2.40
2023-05-09T21:38:15.145Z,2.40
2023-05-09T21:40:41.576Z,2.22
2023-05-09T21:43:08.053Z,3.95
2023-05-09T21:45:34.522Z,2.40
2023-05-09T21:48:01.064Z,2.78
2023-05-09T21:50:27.589Z,2.00
2023-05-09T21:52:56.196Z,2.38
2023-05-09T21:55:25.111Z,2.05
2023-05-09T21:57:51.912Z,2.17
2023-05-09T22:00:18.769Z,2.42
2023-05-09T22:02:45.399Z,2.10
2023-05-09T22:05:12.226Z,2.33
2023-05-09T22:07:38.823Z,2.53
2023-05-09T22:10:05.520Z,3.17
2023-05-09T22:12:31.948Z,2.30
2023-05-09T22:14:58.393Z,2.20
2023-05-09T22:17:24.971Z,2.20
2023-05-09T22:19:51.968Z,2.30
2023-05-09T22:22:18.459Z,2.67
2023-05-09T22:24:44.880Z,2.63
2023-05-09T22:27:11.409Z,2.90
2023-05-09T22:29:37.889Z,2.45
2023-05-09T22:32:04.562Z,2.60
2023-05-09T22:34:31.186Z,2.50
2023-05-09T22:36:57.616Z,2.88
2023-05-09T22:39:24.263Z,2.92
2023-05-09T22:41:50.669Z,2.63
2023-05-09T22:44:17.054Z,2.38
2023-05-09T22:46:43.467Z,2.72
2023-05-09T22:49:09.992Z,2.55
2023-05-09T22:51:36.624Z,2.40
2023-05-09T22:54:03.099Z,3.13
2023-05-09T22:56:29.560Z,2.53
2023-05-09T22:58:56.026Z,2.72
2023-05-09T23:01:22.470Z,2.80
2023-05-09T23:03:48.922Z,3.30
2023-05-09T23:06:15.384Z,2.90
2023-05-09T23:08:41.836Z,2.65
2023-05-09T23:11:08.375Z,2.03
2023-05-09T23:13:34.768Z,2.50
2023-05-09T23:16:01.195Z,2.78
2023-05-09T23:18:31.031Z,2.83
2023-05-09T23:20:57.502Z,2.67
2023-05-09T23:23:24.043Z,2.58
2023-05-09T23:25:50.498Z,2.63
2023-05-09T23:28:16.951Z,2.67
2023-05-09T23:30:43.339Z,2.53
2023-05-09T23:33:09.736Z,2.35
2023-05-09T23:35:38.259Z,3.30
2023-05-09T23:38:04.785Z,2.55
2023-05-09T23:40:31.302Z,2.47
2023-05-09T23:42:57.807Z,3.65
2023-05-09T23:45:24.220Z,2.65
2023-05-09T23:47:50.776Z,2.50
2023-05-09T23:50:17.591Z,2.40
2023-05-09T23:52:44.337Z,2.55
2023-05-09T23:55:10.742Z,2.30
2023-05-09T23:57:37.219Z,3.15
